createdAt,value
2018-09-28T00:01:45.904Z,82.48
2018-09-28T00:04:15.174Z,81.62
2018-09-28T00:06:44.296Z,82.40
2018-09-28T00:09:13.616Z,83.04
2018-09-28T00:11:42.923Z,82.29
2018-09-28T00:14:12.071Z,81.07
2018-09-28T00:16:41.272Z,81.79
2018-09-28T00:19:10.452Z,82.78
2018-09-28T00:21:39.663Z,82.78
2018-09-28T00:24:08.859Z,82.57
2018-09-28T00:26:38.141Z,82.36
2018-09-28T00:29:07.416Z,82.20
2018-09-28T00:31:36.636Z,80.96
2018-09-28T00:34:06.044Z,81.77
2018-09-28T00:36:35.140Z,80.32
2018-09-28T00:39:05.350Z,80.44
2018-09-28T00:41:34.657Z,79.06
2018-09-28T00:44:04.073Z,79.47
2018-09-28T00:46:33.403Z,80.63
2018-09-28T00:49:02.664Z,82.02
2018-09-28T00:51:31.857Z,83.10
2018-09-28T00:54:01.051Z,82.91
2018-09-28T00:56:30.357Z,82.54
2018-09-28T00:58:59.669Z,81.19
2018-09-28T01:01:28.887Z,80.08
2018-09-28T01:03:58.064Z,80.39
2018-09-28T01:06:27.500Z,81.76
2018-09-28T01:08:56.763Z,80.73
2018-09-28T01:11:26.063Z,82.07
2018-09-28T01:13:55.256Z,82.94
2018-09-28T01:16:24.457Z,81.86
2018-09-28T01:18:53.654Z,81.92
2018-09-28T01:21:22.964Z,82.09
2018-09-28T01:23:52.247Z,82.27
2018-09-28T01:26:21.551Z,82.98
2018-09-28T01:28:50.846Z,81.82
2018-09-28T01:31:20.220Z,81.63
2018-09-28T01:33:49.358Z,82.31
2018-09-28T01:36:18.686Z,82.32
2018-09-28T01:38:47.990Z,81.82
2018-09-28T01:41:17.340Z,81.34
2018-09-28T01:43:46.551Z,82.97
2018-09-28T01:46:15.768Z,81.91
2018-09-28T01:48:44.769Z,82.42
2018-09-28T01:51:14.027Z,83.83
2018-09-28T01:53:43.362Z,82.50
2018-09-28T01:56:12.685Z,82.97
2018-09-28T01:58:42.080Z,81.59
2018-09-28T02:01:11.392Z,81.64
2018-09-28T02:03:40.711Z,81.64
2018-09-28T02:06:10.199Z,82.30
2018-09-28T02:08:39.459Z,81.83
2018-09-28T02:11:08.740Z,81.16
2018-09-28T02:13:37.992Z,82.17
2018-09-28T02:16:07.240Z,84.23
2018-09-28T02:18:36.555Z,83.43
2018-09-28T02:21:05.838Z,82.86
2018-09-28T02:23:35.048Z,83.78
2018-09-28T02:26:04.349Z,84.05
2018-09-28T02:28:33.576Z,84.59
2018-09-28T02:31:02.883Z,83.72
2018-09-28T02:33:32.192Z,83.82
2018-09-28T02:36:01.476Z,84.56
2018-09-28T02:38:30.877Z,85.20
2018-09-28T02:41:00.208Z,84.09
2018-09-28T02:43:29.484Z,83.52
2018-09-28T02:45:58.804Z,84.10
2018-09-28T02:48:27.943Z,84.22
2018-09-28T02:50:57.134Z,82.28
2018-09-28T02:53:26.356Z,82.81
2018-09-28T02:55:55.588Z,83.63
2018-09-28T02:58:24.896Z,83.74
2018-09-28T03:00:54.064Z,83.33
2018-09-28T03:03:23.596Z,83.69
2018-09-28T03:05:52.748Z,83.80
2018-09-28T03:08:22.044Z,83.95
2018-09-28T03:10:51.356Z,83.97
2018-09-28T03:13:20.641Z,84.09
2018-09-28T03:15:50.153Z,85.44
2018-09-28T03:18:19.482Z,86.01
2018-09-28T03:20:48.803Z,86.73
2018-09-28T03:23:18.136Z,85.81
2018-09-28T03:25:47.504Z,87.15
2018-09-28T03:28:16.736Z,86.89
2018-09-28T03:30:45.995Z,87.96
2018-09-28T03:33:15.300Z,88.19
2018-09-28T03:35:44.480Z,88.45
2018-09-28T03:38:13.634Z,88.51
2018-09-28T03:40:42.824Z,87.53
2018-09-28T03:43:12.090Z,87.26
2018-09-28T03:45:41.449Z,88.32
2018-09-28T03:48:10.751Z,88.61
2018-09-28T03:50:40.104Z,88.60
2018-09-28T03:53:08.992Z,89.18
2018-09-28T03:55:37.875Z,89.31
2018-09-28T03:58:06.883Z,88.75
2018-09-28T04:00:36.159Z,88.33
2018-09-28T04:03:05.612Z,88.28
2018-09-28T04:05:34.820Z,87.68
2018-09-28T04:08:04.128Z,87.67
2018-09-28T04:10:33.420Z,87.79
2018-09-28T04:13:02.713Z,86.74
2018-09-28T04:15:32.120Z,87.85
2018-09-28T04:18:01.330Z,88.08
2018-09-28T04:20:30.605Z,87.62
2018-09-28T04:22:59.903Z,87.93
2018-09-28T04:25:29.280Z,87.95
2018-09-28T04:27:58.520Z,88.05
2018-09-28T04:30:27.712Z,88.99
2018-09-28T04:32:56.946Z,88.98
2018-09-28T04:35:26.108Z,89.52
2018-09-28T04:37:55.552Z,89.27
2018-09-28T04:40:24.757Z,88.31
2018-09-28T04:42:54.201Z,87.98
2018-09-28T04:45:23.469Z,89.03
2018-09-28T04:47:52.731Z,89.31
2018-09-28T04:50:22.080Z,88.74
2018-09-28T04:52:51.534Z,88.81
2018-09-28T04:55:20.855Z,88.52
2018-09-28T04:57:50.256Z,88.35
2018-09-28T05:00:19.572Z,88.84
2018-09-28T05:02:48.883Z,87.88
2018-09-28T05:05:18.180Z,88.11
2018-09-28T05:07:47.592Z,88.35
2018-09-28T05:10:17.006Z,88.33
2018-09-28T05:12:46.276Z,88.90
2018-09-28T05:15:15.457Z,88.86
2018-09-28T05:17:44.732Z,89.82
2018-09-28T05:20:13.839Z,89.23
2018-09-28T05:22:43.143Z,89.32
2018-09-28T05:25:12.522Z,89.86
2018-09-28T05:27:41.892Z,89.44
2018-09-28T05:30:11.196Z,89.97
2018-09-28T05:32:40.787Z,89.89
2018-09-28T05:35:10.000Z,89.93
2018-09-28T05:37:39.564Z,89.45
2018-09-28T05:40:09.111Z,89.40
2018-09-28T05:42:38.176Z,90.23
2018-09-28T05:45:07.391Z,89.44
2018-09-28T05:47:36.647Z,89.36
2018-09-28T05:50:06.097Z,89.30
2018-09-28T05:52:35.265Z,89.73
2018-09-28T05:55:04.431Z,89.11
2018-09-28T05:57:33.752Z,89.79
2018-09-28T06:00:08.096Z,89.29
2018-09-28T06:02:42.592Z,88.81
2018-09-28T06:05:17.284Z,88.58
2018-09-28T06:07:46.516Z,88.17
2018-09-28T06:10:15.976Z,87.68
2018-09-28T06:12:45.253Z,87.44
2018-09-28T06:15:14.634Z,86.24
2018-09-28T06:17:43.859Z,86.15
2018-09-28T06:20:13.144Z,85.90
2018-09-28T06:22:42.520Z,84.38
2018-09-28T06:25:11.813Z,83.92
2018-09-28T06:27:41.141Z,82.02
2018-09-28T06:30:10.365Z,81.83
2018-09-28T06:32:39.647Z,81.85
2018-09-28T06:35:08.943Z,81.70
2018-09-28T06:37:38.161Z,81.95
2018-09-28T06:40:07.448Z,82.35
2018-09-28T06:42:36.452Z,82.90
2018-09-28T06:45:05.656Z,82.26
2018-09-28T06:47:34.664Z,81.52
2018-09-28T06:50:03.564Z,81.11
2018-09-28T06:52:32.483Z,81.38
2018-09-28T06:55:01.728Z,80.33
2018-09-28T06:57:30.639Z,79.89
2018-09-28T06:59:59.587Z,78.90
2018-09-28T07:02:28.458Z,77.11
2018-09-28T07:04:57.337Z,74.81
2018-09-28T07:07:26.231Z,74.41
2018-09-28T07:09:55.150Z,74.55
2018-09-28T07:12:24.020Z,73.41
2018-09-28T07:14:52.980Z,73.59
2018-09-28T07:17:21.874Z,71.35
2018-09-28T07:19:50.781Z,69.03
2018-09-28T07:22:19.686Z,66.75
2018-09-28T07:24:48.610Z,65.36
2018-09-28T07:27:17.533Z,63.78
2018-09-28T07:29:46.443Z,63.60
2018-09-28T07:32:15.851Z,60.83
2018-09-28T07:34:45.192Z,59.04
2018-09-28T07:37:14.656Z,59.96
2018-09-28T07:39:43.823Z,61.37
2018-09-28T07:42:13.081Z,60.61
2018-09-28T07:44:42.496Z,58.81
2018-09-28T07:47:11.784Z,57.46
2018-09-28T07:49:40.965Z,58.62
2018-09-28T07:52:10.320Z,58.91
2018-09-28T07:54:39.587Z,58.36
2018-09-28T07:57:08.887Z,59.18
2018-09-28T07:59:38.223Z,59.29
2018-09-28T08:02:07.694Z,56.01
2018-09-28T08:04:36.899Z,56.35
2018-09-28T08:07:06.161Z,55.78
2018-09-28T08:09:35.489Z,55.83
2018-09-28T08:12:04.747Z,56.82
2018-09-28T08:14:33.639Z,56.32
2018-09-28T08:17:02.532Z,56.62
2018-09-28T08:19:31.375Z,56.15
2018-09-28T08:22:00.281Z,57.66
2018-09-28T08:24:29.160Z,57.36
2018-09-28T08:26:58.060Z,55.27
2018-09-28T08:29:26.919Z,56.11
2018-09-28T08:31:55.843Z,56.87
2018-09-28T08:34:24.790Z,55.95
2018-09-28T08:37:00.341Z,56.13
2018-09-28T08:39:29.211Z,57.37
2018-09-28T08:41:59.079Z,56.62
2018-09-28T08:44:27.912Z,57.80
2018-09-28T08:46:56.812Z,58.18
2018-09-28T08:49:25.660Z,58.06
2018-09-28T08:51:54.543Z,57.61
2018-09-28T08:54:23.487Z,57.38
2018-09-28T08:56:52.380Z,57.83
2018-09-28T08:59:21.249Z,58.17
2018-09-28T09:01:50.123Z,58.07
2018-09-28T09:04:18.990Z,58.09
2018-09-28T09:06:48.032Z,57.82
2018-09-28T09:09:16.905Z,57.91
2018-09-28T09:11:45.782Z,57.55
2018-09-28T09:14:14.665Z,58.51
2018-09-28T09:16:43.553Z,54.98
2018-09-28T09:19:12.478Z,56.03
2018-09-28T09:21:41.367Z,56.29
2018-09-28T09:24:10.496Z,55.47
2018-09-28T09:26:39.396Z,54.25
2018-09-28T09:29:08.289Z,56.37
2018-09-28T09:31:37.231Z,57.92
2018-09-28T09:34:06.124Z,56.64
2018-09-28T09:36:35.115Z,55.98
2018-09-28T09:39:04.369Z,56.74
2018-09-28T09:41:33.251Z,57.61
2018-09-28T09:44:02.148Z,56.73
2018-09-28T09:46:31.017Z,55.40
2018-09-28T09:48:59.928Z,57.11
2018-09-28T09:51:28.827Z,55.52
2018-09-28T09:53:57.715Z,54.51
2018-09-28T09:56:26.581Z,54.56
2018-09-28T09:58:55.509Z,55.94
2018-09-28T10:01:29.649Z,55.05
2018-09-28T10:04:02.635Z,52.87
2018-09-28T10:06:31.570Z,53.23
2018-09-28T10:09:00.484Z,51.97
2018-09-28T10:11:29.429Z,55.32
2018-09-28T10:13:58.433Z,53.28
2018-09-28T10:16:27.425Z,51.96
2018-09-28T10:18:56.348Z,51.98
2018-09-28T10:21:25.223Z,51.30
2018-09-28T10:23:54.083Z,53.17
2018-09-28T10:26:22.963Z,52.07
2018-09-28T10:28:51.916Z,52.04
2018-09-28T10:31:20.812Z,50.23
2018-09-28T10:33:49.713Z,50.92
2018-09-28T10:36:18.619Z,48.72
2018-09-28T10:38:47.511Z,48.68
2018-09-28T10:41:16.576Z,48.26
2018-09-28T10:43:45.380Z,46.64
2018-09-28T10:46:14.304Z,46.57
2018-09-28T10:48:43.400Z,47.90
2018-09-28T10:51:12.286Z,47.69
2018-09-28T10:53:41.446Z,46.84
2018-09-28T10:56:10.523Z,46.27
2018-09-28T10:58:39.801Z,47.13
2018-09-28T11:01:09.223Z,45.17
2018-09-28T11:03:38.468Z,44.67
2018-09-28T11:06:08.658Z,43.71
2018-09-28T11:08:37.801Z,42.58
2018-09-28T11:11:06.833Z,43.92
2018-09-28T11:13:35.717Z,42.66
2018-09-28T11:16:04.600Z,43.07
2018-09-28T11:18:33.457Z,43.38
2018-09-28T11:21:02.465Z,46.80
2018-09-28T11:23:31.607Z,46.55
2018-09-28T11:26:00.634Z,43.33
2018-09-28T11:28:29.520Z,42.19
2018-09-28T11:30:58.396Z,43.72
2018-09-28T11:33:27.331Z,42.52
2018-09-28T11:35:56.234Z,42.61
2018-09-28T11:38:25.132Z,43.95
2018-09-28T11:40:54.065Z,41.80
2018-09-28T11:43:23.141Z,43.04
2018-09-28T11:45:52.108Z,43.27
2018-09-28T11:48:20.956Z,41.57
2018-09-28T11:50:49.855Z,40.84
2018-09-28T11:53:18.748Z,40.70
2018-09-28T11:55:47.613Z,39.78
2018-09-28T11:58:16.483Z,38.51
2018-09-28T12:00:45.383Z,38.84
2018-09-28T12:03:14.287Z,39.71
2018-09-28T12:05:43.248Z,39.45
2018-09-28T12:08:12.132Z,40.32
2018-09-28T12:10:41.027Z,40.59
2018-09-28T12:13:09.885Z,38.50
2018-09-28T12:15:38.848Z,38.94
2018-09-28T12:18:07.798Z,37.45
2018-09-28T12:20:36.668Z,37.67
2018-09-28T12:23:05.580Z,36.27
2018-09-28T12:25:34.453Z,35.00
2018-09-28T12:28:03.348Z,36.11
2018-09-28T12:30:32.291Z,37.95
2018-09-28T12:33:01.232Z,36.67
2018-09-28T12:35:30.263Z,35.72
2018-09-28T12:37:59.707Z,35.19
2018-09-28T12:40:29.003Z,34.99
2018-09-28T12:42:58.120Z,35.16
2018-09-28T12:45:27.412Z,33.85
2018-09-28T12:47:56.267Z,35.81
2018-09-28T12:50:25.253Z,35.46
2018-09-28T12:52:54.093Z,35.67
2018-09-28T12:55:23.035Z,34.55
2018-09-28T12:57:52.000Z,34.99
2018-09-28T13:00:21.008Z,32.77
2018-09-28T13:02:49.999Z,31.47
2018-09-28T13:05:18.852Z,32.64
2018-09-28T13:07:47.729Z,29.17
2018-09-28T13:10:16.633Z,29.64
2018-09-28T13:12:45.575Z,30.20
2018-09-28T13:15:14.666Z,32.14
2018-09-28T13:17:43.428Z,33.97
2018-09-28T13:20:12.325Z,37.60
2018-09-28T13:22:41.238Z,38.76
2018-09-28T13:25:10.155Z,40.43
2018-09-28T13:27:39.024Z,38.86
2018-09-28T13:30:08.158Z,37.88
2018-09-28T13:32:37.184Z,39.07
2018-09-28T13:35:06.164Z,37.32
2018-09-28T13:37:35.078Z,37.51
2018-09-28T13:40:04.008Z,37.90
2018-09-28T13:42:32.933Z,40.15
2018-09-28T13:45:01.895Z,41.77
2018-09-28T13:47:30.777Z,41.44
2018-09-28T13:49:59.663Z,40.71
2018-09-28T13:54:56.501Z,39.84
2018-09-28T13:57:25.377Z,39.36
2018-09-28T13:59:54.351Z,37.79
2018-09-28T14:02:23.269Z,38.75
2018-09-28T14:04:52.189Z,38.43
2018-09-28T14:07:21.072Z,36.48
2018-09-28T14:09:50.031Z,38.44
2018-09-28T14:12:19.033Z,39.29
2018-09-28T14:14:48.036Z,41.42
2018-09-28T14:17:16.973Z,39.30
2018-09-28T14:19:45.873Z,38.66
2018-09-28T14:22:14.802Z,38.17
2018-09-28T14:24:43.750Z,36.78
2018-09-28T14:27:12.600Z,37.57
2018-09-28T14:29:41.509Z,36.59
2018-09-28T14:32:10.490Z,35.15
2018-09-28T14:34:39.408Z,34.71
2018-09-28T14:37:08.291Z,34.97
2018-09-28T14:39:37.156Z,35.94
2018-09-28T14:42:06.136Z,34.53
2018-09-28T14:44:35.198Z,35.14
2018-09-28T14:47:04.451Z,34.04
2018-09-28T14:49:33.331Z,35.03
2018-09-28T14:52:02.200Z,36.63
2018-09-28T14:54:31.206Z,36.01
2018-09-28T14:57:00.184Z,34.98
2018-09-28T14:59:29.125Z,34.91
2018-09-28T15:01:58.019Z,37.44
2018-09-28T15:04:27.007Z,35.59
2018-09-28T15:06:55.962Z,36.26
2018-09-28T15:09:24.759Z,37.35
2018-09-28T15:11:53.703Z,36.47
2018-09-28T15:14:22.670Z,35.75
2018-09-28T15:16:51.543Z,34.92
2018-09-28T15:19:20.479Z,36.08
2018-09-28T15:21:49.465Z,34.67
2018-09-28T15:24:18.750Z,35.63
2018-09-28T15:26:48.091Z,37.67
2018-09-28T15:29:17.345Z,37.58
2018-09-28T15:31:46.633Z,36.97
2018-09-28T15:34:16.083Z,38.47
2018-09-28T15:36:45.336Z,37.93
2018-09-28T15:39:15.017Z,39.28
2018-09-28T15:41:44.449Z,40.12
2018-09-28T15:44:14.185Z,40.04
2018-09-28T15:46:43.452Z,41.45
2018-09-28T15:49:12.879Z,40.84
2018-09-28T15:51:42.067Z,41.02
2018-09-28T15:54:11.413Z,41.03
2018-09-28T15:56:40.723Z,41.04
2018-09-28T15:59:10.012Z,41.74
2018-09-28T16:01:39.278Z,41.61
2018-09-28T16:04:08.555Z,41.83
2018-09-28T16:06:37.760Z,41.52
2018-09-28T16:09:09.061Z,41.33
2018-09-28T16:11:38.385Z,41.87
2018-09-28T16:14:07.279Z,42.76
2018-09-28T16:16:36.173Z,43.63
2018-09-28T16:19:05.064Z,43.05
2018-09-28T16:21:34.441Z,42.73
2018-09-28T16:24:03.685Z,43.04
2018-09-28T16:26:32.934Z,42.21
2018-09-28T16:29:02.289Z,42.94
2018-09-28T16:31:31.515Z,44.26
2018-09-28T16:34:00.671Z,44.06
2018-09-28T16:36:29.995Z,44.04
2018-09-28T16:38:59.316Z,45.58
2018-09-28T16:41:28.542Z,47.02
2018-09-28T16:43:57.808Z,45.26
2018-09-28T16:46:26.972Z,46.66
2018-09-28T16:48:56.216Z,47.02
2018-09-28T16:51:25.371Z,46.01
2018-09-28T16:53:54.735Z,46.71
2018-09-28T16:56:24.011Z,47.10
2018-09-28T16:58:53.340Z,47.83
2018-09-28T17:01:28.596Z,47.47
2018-09-28T17:03:57.979Z,47.52
2018-09-28T17:06:27.215Z,48.23
2018-09-28T17:08:56.555Z,48.68
2018-09-28T17:11:25.847Z,47.20
2018-09-28T17:13:55.140Z,47.82
2018-09-28T17:16:24.412Z,48.48
2018-09-28T17:18:53.671Z,49.92
2018-09-28T17:21:22.881Z,49.81
2018-09-28T17:23:52.152Z,49.83
2018-09-28T17:26:21.424Z,51.08
2018-09-28T17:28:50.661Z,50.21
2018-09-28T17:31:19.954Z,50.00
2018-09-28T17:33:49.264Z,50.66
2018-09-28T17:36:18.488Z,51.05
2018-09-28T17:38:47.884Z,52.63
2018-09-28T17:41:17.161Z,51.75
2018-09-28T17:43:46.465Z,52.32
2018-09-28T17:46:15.779Z,51.29
2018-09-28T17:48:45.177Z,53.42
2018-09-28T17:51:14.569Z,52.80
2018-09-28T17:53:43.890Z,53.05
2018-09-28T17:56:13.278Z,53.17
2018-09-28T17:58:42.688Z,53.80
2018-09-28T18:01:11.872Z,54.44
2018-09-28T18:03:41.172Z,55.34
2018-09-28T18:06:10.478Z,55.79
2018-09-28T18:08:39.816Z,56.80
2018-09-28T18:11:09.203Z,57.82
2018-09-28T18:13:38.560Z,58.05
2018-09-28T18:16:07.961Z,58.48
2018-09-28T18:18:36.937Z,59.57
2018-09-28T18:21:05.959Z,60.08
2018-09-28T18:23:35.255Z,61.02
2018-09-28T18:26:04.556Z,61.91
2018-09-28T18:28:33.769Z,62.18
2018-09-28T18:31:03.058Z,62.92
2018-09-28T18:33:32.284Z,63.20
2018-09-28T18:36:01.655Z,63.44
2018-09-28T18:38:30.768Z,63.34
2018-09-28T18:40:59.782Z,64.28
2018-09-28T18:43:28.844Z,64.25
2018-09-28T18:45:57.839Z,65.21
2018-09-28T18:48:27.143Z,65.46
2018-09-28T18:50:56.568Z,65.90
2018-09-28T18:53:25.940Z,65.99
2018-09-28T18:55:55.241Z,66.80
2018-09-28T18:58:24.541Z,66.60
2018-09-28T19:00:53.745Z,66.32
2018-09-28T19:03:23.085Z,66.92
2018-09-28T19:05:52.510Z,67.75
2018-09-28T19:08:21.832Z,68.04
2018-09-28T19:10:51.036Z,68.95
2018-09-28T19:13:20.076Z,69.05
2018-09-28T19:15:49.021Z,69.90
2018-09-28T19:18:17.959Z,70.22
2018-09-28T19:20:46.911Z,70.55
2018-09-28T19:23:15.852Z,71.32
2018-09-28T19:25:44.839Z,71.52
2018-09-28T19:28:14.171Z,71.96
2018-09-28T19:30:43.296Z,72.22
2018-09-28T19:33:12.563Z,72.22
2018-09-28T19:35:41.852Z,73.09
2018-09-28T19:38:11.176Z,72.80
2018-09-28T19:40:41.059Z,73.26
2018-09-28T19:43:10.036Z,73.33
2018-09-28T19:45:39.056Z,73.28
2018-09-28T19:48:08.088Z,74.16
2018-09-28T19:50:37.344Z,74.48
2018-09-28T19:53:06.640Z,74.89
2018-09-28T19:55:35.948Z,75.07
2018-09-28T19:58:05.185Z,75.23
2018-09-28T20:00:34.440Z,75.54
2018-09-28T20:03:03.739Z,75.13
2018-09-28T20:05:32.732Z,75.40
2018-09-28T20:08:01.740Z,75.61
2018-09-28T20:10:30.623Z,75.88
2018-09-28T20:12:59.545Z,75.93
2018-09-28T20:15:28.452Z,76.29
2018-09-28T20:17:57.355Z,75.97
2018-09-28T20:20:26.368Z,76.54
2018-09-28T20:22:55.311Z,78.08
2018-09-28T20:25:24.372Z,77.36
2018-09-28T20:27:53.314Z,77.58
2018-09-28T20:30:22.356Z,78.17
2018-09-28T20:32:51.312Z,77.99
2018-09-28T20:35:20.337Z,78.34
2018-09-28T20:37:49.219Z,78.80
2018-09-28T20:40:18.124Z,79.31
2018-09-28T20:42:47.441Z,79.13
2018-09-28T20:45:16.655Z,79.65
2018-09-28T20:47:45.945Z,80.94
2018-09-28T20:50:15.203Z,82.20
2018-09-28T20:52:44.414Z,83.83
2018-09-28T20:55:13.707Z,83.98
2018-09-28T20:57:42.977Z,84.73
2018-09-28T21:00:12.293Z,85.93
2018-09-28T21:02:41.500Z,86.56
2018-09-28T21:05:10.833Z,87.69
2018-09-28T21:07:40.127Z,87.72
2018-09-28T21:10:09.435Z,88.55
2018-09-28T21:12:38.776Z,90.14
2018-09-28T21:15:08.183Z,89.20
2018-09-28T21:17:37.497Z,88.67
2018-09-28T21:20:06.797Z,88.00
2018-09-28T21:22:36.096Z,87.46
2018-09-28T21:25:05.308Z,88.34
2018-09-28T21:27:34.523Z,88.99
2018-09-28T21:30:03.972Z,88.30
2018-09-28T21:32:33.244Z,89.43
2018-09-28T21:35:02.507Z,88.60
2018-09-28T21:37:31.831Z,87.59
2018-09-28T21:40:01.165Z,87.56
2018-09-28T21:42:30.352Z,88.09
2018-09-28T21:44:59.497Z,87.78
2018-09-28T21:47:28.708Z,87.82
2018-09-28T21:49:57.998Z,87.46
2018-09-28T21:52:27.315Z,87.22
2018-09-28T21:54:56.640Z,85.98
2018-09-28T21:57:25.916Z,85.36
2018-09-28T21:59:55.088Z,85.53
2018-09-28T22:02:29.880Z,85.76
2018-09-28T22:04:59.052Z,82.37
2018-09-28T22:07:28.412Z,81.31
2018-09-28T22:09:57.590Z,80.70
2018-09-28T22:12:26.887Z,81.06
2018-09-28T22:14:56.198Z,82.12
2018-09-28T22:17:25.597Z,81.67
2018-09-28T22:19:54.907Z,80.45
2018-09-28T22:22:24.256Z,79.42
2018-09-28T22:24:53.459Z,79.28
2018-09-28T22:27:22.766Z,79.31
2018-09-28T22:29:52.117Z,77.02
2018-09-28T22:32:21.408Z,76.40
2018-09-28T22:34:52.357Z,75.56
2018-09-28T22:37:24.254Z,76.40
2018-09-28T22:40:01.420Z,75.86
2018-09-28T22:42:30.852Z,75.24
2018-09-28T22:45:00.118Z,72.57
2018-09-28T22:47:29.922Z,73.36
2018-09-28T22:49:59.280Z,72.83
2018-09-28T22:52:28.511Z,72.13
2018-09-28T22:54:57.823Z,73.22
2018-09-28T22:57:27.157Z,72.55
2018-09-28T22:59:56.528Z,72.76
2018-09-28T23:02:25.828Z,70.93
2018-09-28T23:04:55.142Z,70.45
2018-09-28T23:07:24.448Z,70.89
2018-09-28T23:09:53.744Z,70.05
2018-09-28T23:12:23.070Z,68.78
2018-09-28T23:14:52.372Z,66.91
2018-09-28T23:17:21.643Z,68.20
2018-09-28T23:19:50.937Z,68.16
2018-09-28T23:22:20.235Z,66.45
2018-09-28T23:24:49.521Z,66.42
2018-09-28T23:27:18.811Z,66.60
2018-09-28T23:29:54.351Z,68.58
2018-09-28T23:32:23.576Z,67.15
2018-09-28T23:34:52.999Z,66.03
2018-09-28T23:37:22.311Z,68.35
2018-09-28T23:39:51.205Z,65.28
2018-09-28T23:42:20.067Z,63.81
2018-09-28T23:44:48.943Z,66.84
2018-09-28T23:47:17.829Z,68.08
2018-09-28T23:49:47.168Z,67.10
2018-09-28T23:52:16.466Z,65.84
2018-09-28T23:54:45.744Z,65.54
2018-09-28T23:57:15.073Z,63.47
2018-09-28T23:59:44.496Z,63.14
